createdAt,value
2023-05-21T00:00:02.789Z,14.27
2023-05-21T00:01:02.933Z,14.34
2023-05-21T00:02:03.072Z,14.35
2023-05-21T00:03:02.307Z,14.42
2023-05-21T00:04:02.752Z,14.44
2023-05-21T00:05:02.775Z,14.52
2023-05-21T00:06:02.838Z,14.53
2023-05-21T00:07:02.734Z,14.62
2023-05-21T00:08:01.857Z,14.64
2023-05-21T00:09:02.109Z,14.56
2023-05-21T00:10:02.324Z,14.52
2023-05-21T00:11:02.305Z,14.57
2023-05-21T00:12:01.733Z,14.60
2023-05-21T00:13:01.889Z,14.49
2023-05-21T00:14:02.009Z,14.42
2023-05-21T00:15:02.390Z,14.44
2023-05-21T00:16:02.295Z,14.52
2023-05-21T00:17:02.326Z,14.64
2023-05-21T00:18:02.131Z,14.65
2023-05-21T00:19:02.391Z,14.68
2023-05-21T00:20:02.607Z,14.68
2023-05-21T00:21:02.509Z,14.71
2023-05-21T00:22:02.374Z,14.74
2023-05-21T00:23:02.453Z,14.81
2023-05-21T00:24:02.651Z,14.81
2023-05-21T00:25:02.951Z,14.80
2023-05-21T00:26:02.806Z,14.78
2023-05-21T00:27:02.468Z,14.78
2023-05-21T00:28:01.703Z,14.74
2023-05-21T00:29:01.909Z,14.75
2023-05-21T00:30:01.701Z,14.74
2023-05-21T00:31:01.935Z,14.69
2023-05-21T00:32:02.190Z,14.65
2023-05-21T00:33:02.237Z,14.67
2023-05-21T00:34:02.087Z,14.68
2023-05-21T00:35:02.259Z,14.67
2023-05-21T00:36:02.351Z,14.57
2023-05-21T00:37:02.518Z,14.56
2023-05-21T00:38:02.649Z,14.56
2023-05-21T00:39:03.081Z,14.57
2023-05-21T00:40:02.984Z,14.60
2023-05-21T00:41:02.777Z,14.57
2023-05-21T00:42:02.518Z,14.61
2023-05-21T00:43:02.636Z,14.57
2023-05-21T00:44:02.543Z,14.56
2023-05-21T00:45:02.681Z,14.60
2023-05-21T00:46:02.885Z,14.56
2023-05-21T00:47:03.094Z,14.56
2023-05-21T00:48:02.440Z,14.60
2023-05-21T00:49:02.405Z,14.61
2023-05-21T00:50:02.540Z,14.60
2023-05-21T00:51:02.601Z,14.60
2023-05-21T00:52:02.077Z,14.56
2023-05-21T00:53:02.305Z,14.49
2023-05-21T00:54:02.547Z,14.39
2023-05-21T00:55:02.428Z,14.35
2023-05-21T00:56:02.517Z,14.37
2023-05-21T00:57:02.654Z,14.39
2023-05-21T00:58:02.632Z,14.37
2023-05-21T00:59:02.582Z,14.25
2023-05-21T01:00:02.786Z,14.13
2023-05-21T01:01:02.809Z,14.17
2023-05-21T01:02:02.863Z,14.24
2023-05-21T01:03:02.101Z,14.25
2023-05-21T01:04:01.845Z,14.27
2023-05-21T01:05:02.138Z,14.28
2023-05-21T01:06:02.048Z,14.27
2023-05-21T01:07:02.430Z,14.28
2023-05-21T01:08:02.578Z,14.27
2023-05-21T01:09:03.914Z,14.21
2023-05-21T01:10:02.243Z,14.21
2023-05-21T01:11:02.096Z,14.17
2023-05-21T01:12:02.360Z,14.16
2023-05-21T01:13:02.309Z,14.09
2023-05-21T01:14:02.322Z,14.07
2023-05-21T01:15:02.512Z,14.07
2023-05-21T01:16:02.722Z,13.99
2023-05-21T01:17:02.608Z,13.95
2023-05-21T01:18:02.811Z,13.91
2023-05-21T01:19:03.009Z,13.91
2023-05-21T01:20:02.511Z,13.87
2023-05-21T01:21:02.744Z,13.89
2023-05-21T01:22:02.748Z,13.92
2023-05-21T01:23:02.110Z,13.95
2023-05-21T01:24:02.288Z,13.98
2023-05-21T01:25:02.212Z,13.99
2023-05-21T01:26:02.361Z,14.01
2023-05-21T01:27:02.232Z,14.02
2023-05-21T01:28:02.289Z,13.99
2023-05-21T01:29:02.499Z,13.99
2023-05-21T01:30:02.138Z,14.02
2023-05-21T01:31:02.251Z,14.01
2023-05-21T01:32:02.565Z,13.99
2023-05-21T01:33:02.312Z,13.91
2023-05-21T01:34:02.499Z,13.88
2023-05-21T01:35:02.281Z,13.81
2023-05-21T01:36:02.419Z,13.80
2023-05-21T01:37:02.526Z,13.88
2023-05-21T01:38:02.680Z,13.92
2023-05-21T01:39:02.558Z,13.98
2023-05-21T01:40:02.175Z,13.95
2023-05-21T01:41:02.532Z,13.98
2023-05-21T01:42:02.602Z,13.95
2023-05-21T01:43:02.714Z,13.96
2023-05-21T01:44:02.857Z,13.95
2023-05-21T01:45:03.020Z,13.99
2023-05-21T01:46:02.830Z,13.96
2023-05-21T01:47:03.060Z,13.95
2023-05-21T01:48:02.426Z,13.88
2023-05-21T01:49:02.410Z,13.87
2023-05-21T01:50:02.514Z,13.88
2023-05-21T01:51:02.054Z,13.84
2023-05-21T01:52:02.169Z,13.84
2023-05-21T01:53:02.205Z,13.88
2023-05-21T01:54:02.614Z,13.83
2023-05-21T01:55:02.761Z,13.87
2023-05-21T01:56:02.594Z,13.89
2023-05-21T01:57:02.409Z,13.81
2023-05-21T01:58:02.785Z,13.76
2023-05-21T01:59:02.573Z,13.84
2023-05-21T02:00:02.731Z,13.87
2023-05-21T02:01:02.746Z,13.88
2023-05-21T02:02:02.597Z,13.89
2023-05-21T02:03:02.951Z,13.94
2023-05-21T02:04:02.991Z,13.94
2023-05-21T02:05:03.018Z,13.89
2023-05-21T02:06:02.668Z,13.88
2023-05-21T02:07:02.583Z,13.89
2023-05-21T02:08:02.488Z,13.89
2023-05-21T02:09:02.286Z,13.87
2023-05-21T02:10:02.162Z,13.84
2023-05-21T02:11:02.443Z,13.84
2023-05-21T02:12:02.294Z,13.84
2023-05-21T02:13:02.539Z,13.83
2023-05-21T02:14:02.687Z,13.83
2023-05-21T02:15:02.616Z,13.87
2023-05-21T02:16:02.778Z,13.89
2023-05-21T02:17:02.814Z,13.89
2023-05-21T02:18:02.467Z,13.91
2023-05-21T02:19:02.953Z,13.92
2023-05-21T02:20:02.708Z,13.95
2023-05-21T02:21:02.314Z,13.94
2023-05-21T02:22:02.638Z,13.91
2023-05-21T02:23:02.754Z,13.79
2023-05-21T02:24:02.651Z,13.71
2023-05-21T02:25:02.624Z,13.73
2023-05-21T02:26:03.036Z,13.74
2023-05-21T02:27:02.923Z,13.79
2023-05-21T02:28:02.060Z,13.84
2023-05-21T02:29:02.038Z,13.84
2023-05-21T02:30:02.213Z,13.84
2023-05-21T02:31:01.995Z,13.89
2023-05-21T02:32:01.957Z,13.91
2023-05-21T02:33:02.928Z,13.89
2023-05-21T02:34:02.933Z,13.80
2023-05-21T02:35:02.827Z,13.77
2023-05-21T02:36:02.379Z,13.80
2023-05-21T02:37:02.458Z,13.76
2023-05-21T02:38:02.348Z,13.61
2023-05-21T02:39:01.861Z,13.55
2023-05-21T02:40:02.714Z,13.49
2023-05-21T02:41:02.406Z,13.54
2023-05-21T02:42:02.134Z,13.58
2023-05-21T02:43:02.888Z,13.62
2023-05-21T02:44:02.855Z,13.67
2023-05-21T02:45:02.908Z,13.71
2023-05-21T02:46:02.438Z,13.73
2023-05-21T02:47:02.459Z,13.73
2023-05-21T02:48:02.269Z,13.76
2023-05-21T02:49:01.674Z,13.76
2023-05-21T02:50:02.110Z,13.83
2023-05-21T02:51:02.220Z,13.84
2023-05-21T02:52:01.858Z,13.87
2023-05-21T02:53:02.708Z,13.89
2023-05-21T02:54:02.249Z,13.89
2023-05-21T02:55:02.389Z,13.94
2023-05-21T02:56:02.780Z,13.92
2023-05-21T02:57:02.667Z,13.95
2023-05-21T02:58:02.464Z,13.94
2023-05-21T02:59:02.470Z,13.98
2023-05-21T03:00:02.310Z,14.01
2023-05-21T03:01:02.628Z,13.98
2023-05-21T03:02:01.898Z,13.98
2023-05-21T03:03:02.100Z,13.96
2023-05-21T03:04:02.704Z,13.92
2023-05-21T03:05:02.173Z,13.89
2023-05-21T03:06:02.278Z,13.89
2023-05-21T03:07:02.457Z,13.94
2023-05-21T03:08:02.746Z,13.92
2023-05-21T03:09:02.924Z,13.94
2023-05-21T03:10:03.021Z,13.95
2023-05-21T03:11:03.117Z,13.91
2023-05-21T03:12:03.291Z,13.89
2023-05-21T03:13:02.954Z,13.92
2023-05-21T03:14:02.517Z,13.88
2023-05-21T03:15:02.707Z,13.89
2023-05-21T03:16:02.833Z,13.84
2023-05-21T03:17:02.790Z,13.87
2023-05-21T03:18:02.706Z,13.84
2023-05-21T03:19:02.760Z,13.89
2023-05-21T03:20:02.998Z,13.91
2023-05-21T03:21:02.747Z,13.95
2023-05-21T03:22:02.990Z,13.95
2023-05-21T03:23:02.960Z,13.88
2023-05-21T03:24:03.037Z,13.83
2023-05-21T03:25:03.166Z,13.84
2023-05-21T03:26:02.987Z,13.87
2023-05-21T03:27:03.102Z,13.88
2023-05-21T03:28:02.307Z,13.88
2023-05-21T03:29:02.761Z,13.89
2023-05-21T03:30:03.887Z,13.88
2023-05-21T03:31:02.827Z,13.83
2023-05-21T03:32:02.414Z,13.81
2023-05-21T03:33:02.582Z,13.84
2023-05-21T03:34:02.822Z,13.83
2023-05-21T03:35:02.879Z,13.80
2023-05-21T03:36:03.076Z,13.83
2023-05-21T03:37:03.213Z,13.84
2023-05-21T03:38:03.133Z,13.84
2023-05-21T03:39:02.839Z,13.88
2023-05-21T03:40:02.866Z,13.89
2023-05-21T03:41:03.197Z,13.91
2023-05-21T03:42:02.850Z,13.87
2023-05-21T03:43:02.943Z,13.94
2023-05-21T03:44:03.180Z,13.92
2023-05-21T03:45:03.421Z,13.95
2023-05-21T03:46:03.327Z,13.98
2023-05-21T03:47:03.621Z,14.04
2023-05-21T03:48:02.723Z,14.02
2023-05-21T03:49:02.897Z,13.94
2023-05-21T03:50:02.982Z,13.92
2023-05-21T03:51:02.796Z,13.96
2023-05-21T03:52:02.995Z,13.95
2023-05-21T03:53:02.465Z,13.96
2023-05-21T03:54:02.735Z,13.95
2023-05-21T03:55:02.668Z,13.98
2023-05-21T03:56:02.233Z,13.96
2023-05-21T03:57:02.539Z,13.98
2023-05-21T03:58:03.464Z,13.94
2023-05-21T03:59:02.818Z,13.95
2023-05-21T04:00:03.077Z,13.95
2023-05-21T04:01:03.125Z,13.95
2023-05-21T04:02:03.074Z,13.95
2023-05-21T04:03:03.079Z,13.96
2023-05-21T04:04:02.815Z,13.99
2023-05-21T04:05:02.919Z,13.99
2023-05-21T04:06:03.033Z,13.99
2023-05-21T04:07:03.254Z,14.01
2023-05-21T04:08:02.129Z,14.04
2023-05-21T04:09:01.970Z,14.04
2023-05-21T04:10:02.230Z,14.02
2023-05-21T04:11:02.745Z,14.06
2023-05-21T04:12:02.445Z,13.92
2023-05-21T04:13:02.660Z,13.80
2023-05-21T04:14:02.433Z,13.74
2023-05-21T04:15:02.692Z,13.63
2023-05-21T04:16:02.544Z,13.62
2023-05-21T04:17:02.811Z,13.62
2023-05-21T04:18:01.967Z,13.62
2023-05-21T04:19:02.399Z,13.65
2023-05-21T04:20:02.423Z,13.69
2023-05-21T04:21:02.103Z,13.76
2023-05-21T04:22:02.292Z,13.79
2023-05-21T04:23:02.823Z,13.83
2023-05-21T04:24:02.852Z,13.84
2023-05-21T04:25:02.921Z,13.88
2023-05-21T04:26:02.313Z,13.79
2023-05-21T04:27:02.360Z,13.77
2023-05-21T04:28:02.682Z,13.77
2023-05-21T04:29:02.660Z,13.76
2023-05-21T04:30:02.918Z,13.79
2023-05-21T04:31:02.952Z,13.81
2023-05-21T04:32:03.034Z,13.87
2023-05-21T04:33:02.969Z,13.91
2023-05-21T04:34:03.335Z,13.92
2023-05-21T04:35:03.307Z,13.95
2023-05-21T04:36:02.869Z,13.98
2023-05-21T04:37:03.208Z,13.99
2023-05-21T04:38:04.265Z,13.99
2023-05-21T04:39:02.755Z,14.04
2023-05-21T04:40:02.800Z,14.09
2023-05-21T04:41:02.823Z,14.13
2023-05-21T04:42:02.310Z,14.14
2023-05-21T04:43:02.482Z,14.21
2023-05-21T04:44:02.236Z,14.21
2023-05-21T04:45:02.413Z,14.20
2023-05-21T04:46:02.751Z,14.21
2023-05-21T04:47:02.709Z,14.24
2023-05-21T04:48:02.854Z,14.25
2023-05-21T04:49:02.922Z,14.29
2023-05-21T04:50:03.041Z,14.32
2023-05-21T04:51:02.728Z,14.35
2023-05-21T04:52:03.034Z,14.35
2023-05-21T04:53:02.330Z,14.38
2023-05-21T04:54:02.598Z,14.38
2023-05-21T04:55:02.584Z,14.39
2023-05-21T04:56:02.606Z,14.43
2023-05-21T04:57:01.955Z,14.39
2023-05-21T04:58:02.638Z,14.38
2023-05-21T04:59:05.181Z,14.38
2023-05-21T05:00:03.075Z,14.37
2023-05-21T05:01:03.228Z,14.34
2023-05-21T05:02:02.665Z,14.37
2023-05-21T05:03:03.030Z,14.42
2023-05-21T05:04:03.202Z,14.39
2023-05-21T05:05:02.745Z,14.42
2023-05-21T05:06:03.144Z,14.43
2023-05-21T05:07:02.616Z,14.46
2023-05-21T05:08:03.352Z,14.44
2023-05-21T05:09:03.558Z,14.44
2023-05-21T05:10:03.567Z,14.49
2023-05-21T05:11:03.998Z,14.50
2023-05-21T05:12:03.348Z,14.52
2023-05-21T05:13:03.642Z,14.57
2023-05-21T05:14:03.945Z,14.61
2023-05-21T05:15:03.663Z,14.67
2023-05-21T05:16:03.439Z,14.71
2023-05-21T05:17:03.797Z,14.71
2023-05-21T05:18:02.885Z,14.71
2023-05-21T05:19:02.602Z,14.74
2023-05-21T05:20:02.830Z,14.75
2023-05-21T05:21:02.966Z,14.74
2023-05-21T05:22:02.406Z,14.67
2023-05-21T05:23:03.450Z,14.61
2023-05-21T05:24:03.410Z,14.54
2023-05-21T05:25:03.316Z,14.56
2023-05-21T05:26:03.271Z,14.60
2023-05-21T05:27:03.595Z,14.62
2023-05-21T05:28:03.614Z,14.61
2023-05-21T05:29:03.258Z,14.68
2023-05-21T05:30:03.396Z,14.71
2023-05-21T05:31:03.651Z,14.78
2023-05-21T05:32:03.261Z,14.84
2023-05-21T05:33:03.343Z,14.90
2023-05-21T05:34:02.984Z,14.91
2023-05-21T05:35:03.306Z,14.98
2023-05-21T05:36:02.938Z,15.01
2023-05-21T05:37:02.961Z,15.08
2023-05-21T05:38:03.318Z,15.11
2023-05-21T05:39:03.493Z,15.13
2023-05-21T05:40:03.195Z,15.19
2023-05-21T05:41:02.874Z,15.21
2023-05-21T05:42:03.258Z,15.24
2023-05-21T05:43:03.857Z,15.30
2023-05-21T05:44:03.495Z,15.31
2023-05-21T05:45:03.755Z,15.38
2023-05-21T05:46:03.414Z,15.39
2023-05-21T05:47:03.392Z,15.38
2023-05-21T05:48:03.543Z,15.24
2023-05-21T05:49:03.162Z,15.26
2023-05-21T05:50:03.083Z,15.30
2023-05-21T05:51:03.245Z,15.36
2023-05-21T05:52:03.425Z,15.41
2023-05-21T05:53:03.049Z,15.42
2023-05-21T05:54:02.758Z,15.38
2023-05-21T05:55:03.103Z,15.39
2023-05-21T05:56:02.768Z,15.39
2023-05-21T05:57:03.051Z,15.39
2023-05-21T05:58:03.179Z,15.42
2023-05-21T05:59:03.206Z,15.42
2023-05-21T06:00:02.605Z,15.36
2023-05-21T06:01:02.950Z,15.31
2023-05-21T06:02:02.968Z,15.33
2023-05-21T06:03:03.422Z,15.45
2023-05-21T06:04:02.788Z,15.45
2023-05-21T06:05:03.192Z,15.48
2023-05-21T06:06:02.826Z,15.48
2023-05-21T06:07:03.126Z,15.51
2023-05-21T06:08:03.933Z,15.57
2023-05-21T06:09:03.964Z,15.66
2023-05-21T06:10:03.826Z,15.67
2023-05-21T06:11:03.491Z,15.78
2023-05-21T06:12:03.544Z,15.81
2023-05-21T06:13:03.603Z,15.86
2023-05-21T06:14:03.021Z,15.86
2023-05-21T06:15:03.484Z,15.85
2023-05-21T06:16:03.324Z,15.82
2023-05-21T06:17:03.467Z,15.81
2023-05-21T06:18:03.220Z,15.82
2023-05-21T06:19:03.184Z,15.96
2023-05-21T06:20:02.564Z,16.07
2023-05-21T06:21:02.738Z,16.16
2023-05-21T06:22:03.035Z,16.25
2023-05-21T06:23:02.590Z,16.37
2023-05-21T06:24:02.930Z,16.42
2023-05-21T06:25:02.994Z,16.52
2023-05-21T06:26:02.626Z,16.60
2023-05-21T06:27:02.972Z,16.68
2023-05-21T06:28:02.665Z,16.78
2023-05-21T06:29:03.036Z,16.92
2023-05-21T06:30:03.321Z,16.95
2023-05-21T06:31:03.342Z,17.07
2023-05-21T06:32:02.841Z,17.08
2023-05-21T06:33:03.258Z,17.10
2023-05-21T06:34:03.747Z,17.06
2023-05-21T06:35:03.161Z,17.10
2023-05-21T06:36:03.422Z,17.11
2023-05-21T06:37:03.238Z,17.14
2023-05-21T06:38:02.610Z,17.20
2023-05-21T06:39:02.978Z,17.22
2023-05-21T06:40:02.625Z,17.25
2023-05-21T06:41:02.799Z,17.33
2023-05-21T06:42:02.812Z,17.46
2023-05-21T06:43:03.117Z,17.59
2023-05-21T06:44:03.108Z,17.71
2023-05-21T06:45:03.591Z,17.84
2023-05-21T06:46:03.647Z,17.91
2023-05-21T06:47:03.101Z,17.99
2023-05-21T06:48:03.639Z,18.13
2023-05-21T06:49:03.654Z,18.24
2023-05-21T06:50:03.890Z,18.33
2023-05-21T06:51:03.592Z,18.43
2023-05-21T06:52:03.945Z,18.52
2023-05-21T06:53:02.925Z,18.58
2023-05-21T06:54:03.277Z,18.64
2023-05-21T06:55:02.959Z,18.73
2023-05-21T06:56:03.594Z,18.72
2023-05-21T06:57:03.020Z,18.70
2023-05-21T06:58:02.933Z,18.72
2023-05-21T06:59:03.053Z,18.73
2023-05-21T07:00:03.441Z,18.67
2023-05-21T07:01:03.157Z,18.74
2023-05-21T07:02:04.677Z,18.86
2023-05-21T07:03:02.784Z,19.02
2023-05-21T07:04:03.086Z,19.18
2023-05-21T07:05:02.871Z,19.33
2023-05-21T07:06:02.770Z,19.40
2023-05-21T07:07:02.536Z,19.48
2023-05-21T07:08:02.978Z,19.54
2023-05-21T07:09:03.234Z,19.68
2023-05-21T07:10:03.488Z,19.86
2023-05-21T07:11:03.115Z,20.03
2023-05-21T07:12:03.320Z,20.15
2023-05-21T07:13:02.639Z,20.23
2023-05-21T07:14:02.842Z,20.35
2023-05-21T07:15:02.507Z,20.51
2023-05-21T07:16:02.555Z,20.47
2023-05-21T07:17:02.700Z,20.35
2023-05-21T07:18:03.161Z,20.41
2023-05-21T07:19:03.260Z,20.56
2023-05-21T07:20:03.286Z,20.74
2023-05-21T07:21:02.971Z,20.84
2023-05-21T07:22:03.277Z,20.79
2023-05-21T07:23:02.667Z,20.76
2023-05-21T07:24:02.530Z,20.83
2023-05-21T07:25:03.039Z,20.86
2023-05-21T07:26:02.775Z,20.98
2023-05-21T07:27:06.496Z,21.11
2023-05-21T07:28:04.005Z,21.23
2023-05-21T07:29:03.317Z,21.30
2023-05-21T07:30:03.292Z,21.35
2023-05-21T07:31:03.182Z,21.46
2023-05-21T07:32:03.706Z,21.54
2023-05-21T07:33:03.471Z,21.63
2023-05-21T07:34:03.368Z,21.69
2023-05-21T07:35:03.664Z,21.78
2023-05-21T07:36:03.883Z,21.90
2023-05-21T07:37:03.533Z,22.01
2023-05-21T07:38:03.198Z,22.01
2023-05-21T07:39:03.420Z,22.04
2023-05-21T07:40:03.467Z,22.12
2023-05-21T07:41:03.259Z,22.17
2023-05-21T07:42:03.638Z,22.25
2023-05-21T07:43:02.761Z,22.31
2023-05-21T07:44:03.121Z,22.37
2023-05-21T07:45:02.561Z,22.43
2023-05-21T07:46:02.939Z,22.57
2023-05-21T07:47:02.575Z,22.68
2023-05-21T07:48:03.226Z,22.75
2023-05-21T07:49:02.756Z,22.83
2023-05-21T07:50:02.982Z,22.89
2023-05-21T07:51:03.303Z,22.96
2023-05-21T07:52:02.933Z,23.08
2023-05-21T07:53:03.388Z,23.19
2023-05-21T07:54:03.457Z,23.17
2023-05-21T07:55:02.816Z,23.23
2023-05-21T07:56:03.409Z,23.23
2023-05-21T07:57:03.045Z,23.22
2023-05-21T07:58:03.235Z,23.15
2023-05-21T07:59:02.900Z,23.19
2023-05-21T08:00:03.138Z,23.31
2023-05-21T08:01:03.453Z,23.43
2023-05-21T08:02:03.406Z,23.53
2023-05-21T08:03:02.960Z,23.57
2023-05-21T08:04:03.205Z,23.57
2023-05-21T08:05:02.558Z,23.70
2023-05-21T08:06:02.941Z,23.80
2023-05-21T08:07:02.907Z,23.75
2023-05-21T08:08:03.109Z,23.71
2023-05-21T08:09:02.927Z,23.71
2023-05-21T08:10:03.249Z,23.86
2023-05-21T08:11:03.379Z,23.95
2023-05-21T08:12:03.307Z,23.89
2023-05-21T08:13:02.972Z,23.86
2023-05-21T08:14:02.664Z,23.90
2023-05-21T08:15:02.332Z,24.04
2023-05-21T08:16:02.774Z,24.20
2023-05-21T08:17:02.524Z,24.32
2023-05-21T08:18:03.070Z,24.41
2023-05-21T08:19:02.738Z,24.42
2023-05-21T08:20:03.087Z,24.54
2023-05-21T08:21:02.937Z,24.64
2023-05-21T08:22:03.102Z,24.60
2023-05-21T08:23:02.758Z,24.64
2023-05-21T08:24:02.710Z,24.67
2023-05-21T08:25:02.280Z,24.69
2023-05-21T08:26:02.416Z,24.68
2023-05-21T08:27:02.617Z,24.71
2023-05-21T08:28:02.991Z,24.77
2023-05-21T08:29:03.167Z,24.80
2023-05-21T08:30:02.762Z,24.75
2023-05-21T08:31:03.062Z,24.60
2023-05-21T08:32:03.164Z,24.39
2023-05-21T08:33:03.201Z,24.24
2023-05-21T08:34:03.198Z,24.10
2023-05-21T08:35:03.202Z,24.04
2023-05-21T08:36:02.872Z,24.01
2023-05-21T08:37:03.009Z,24.02
2023-05-21T08:38:03.560Z,24.10
2023-05-21T08:39:03.366Z,24.22
2023-05-21T08:40:03.507Z,24.22
2023-05-21T08:41:03.211Z,24.22
2023-05-21T08:42:03.033Z,24.26
2023-05-21T08:43:03.121Z,24.31
2023-05-21T08:44:03.138Z,24.35
2023-05-21T08:45:02.655Z,24.41
2023-05-21T08:46:02.734Z,24.31
2023-05-21T08:47:02.938Z,24.29
2023-05-21T08:48:03.467Z,24.29
2023-05-21T08:49:03.115Z,24.29
2023-05-21T08:50:03.128Z,24.29
2023-05-21T08:51:03.306Z,24.27
2023-05-21T08:52:03.228Z,24.26
2023-05-21T08:53:07.532Z,24.26
2023-05-21T08:54:02.999Z,24.26
2023-05-21T08:55:03.457Z,24.24
2023-05-21T08:56:03.162Z,24.23
2023-05-21T08:57:03.481Z,24.24
2023-05-21T08:58:03.576Z,24.26
2023-05-21T08:59:03.262Z,24.17
2023-05-21T09:00:03.412Z,24.17
2023-05-21T09:01:03.500Z,24.04
2023-05-21T09:02:03.709Z,23.89
2023-05-21T09:03:02.988Z,23.86
2023-05-21T09:04:18.830Z,23.87
2023-05-21T09:05:02.954Z,23.87
2023-05-21T09:06:02.890Z,23.95
2023-05-21T09:07:02.328Z,24.04
2023-05-21T09:08:03.476Z,24.08
2023-05-21T09:09:03.436Z,24.05
2023-05-21T09:10:03.528Z,23.97
2023-05-21T09:11:03.447Z,23.97
2023-05-21T09:12:02.988Z,24.00
2023-05-21T09:13:03.635Z,24.01
2023-05-21T09:14:03.390Z,23.75
2023-05-21T09:15:03.600Z,23.70
2023-05-21T09:16:03.649Z,23.70
2023-05-21T09:17:03.224Z,23.72
2023-05-21T09:18:02.973Z,23.67
2023-05-21T09:19:04.474Z,23.64
2023-05-21T09:20:02.710Z,23.67
2023-05-21T09:21:02.823Z,23.72
2023-05-21T09:22:02.518Z,23.75
2023-05-21T09:23:02.978Z,23.83
2023-05-21T09:24:02.523Z,23.77
2023-05-21T09:25:02.561Z,23.76
2023-05-21T09:26:02.524Z,23.77
2023-05-21T09:27:02.812Z,23.79
2023-05-21T09:28:03.542Z,23.75
2023-05-21T09:29:03.329Z,23.76
2023-05-21T09:30:03.226Z,23.65
2023-05-21T09:31:03.552Z,23.64
2023-05-21T09:32:02.941Z,23.68
2023-05-21T09:33:02.336Z,23.82
2023-05-21T09:34:02.658Z,23.90
2023-05-21T09:35:02.362Z,23.95
2023-05-21T09:36:02.462Z,23.94
2023-05-21T09:37:03.688Z,23.97
2023-05-21T09:38:02.851Z,24.04
2023-05-21T09:39:03.493Z,24.02
2023-05-21T09:40:03.374Z,24.01
2023-05-21T09:41:03.132Z,24.10
2023-05-21T09:42:03.502Z,24.17
2023-05-21T09:43:03.455Z,24.19
2023-05-21T09:44:02.517Z,24.16
2023-05-21T09:45:03.104Z,24.13
2023-05-21T09:46:03.161Z,24.22
2023-05-21T09:47:02.991Z,24.20
2023-05-21T09:48:02.975Z,24.23
2023-05-21T09:49:03.341Z,24.32
2023-05-21T09:50:03.493Z,24.39
2023-05-21T09:51:03.711Z,24.34
2023-05-21T09:52:03.711Z,24.34
2023-05-21T09:53:03.805Z,24.47
2023-05-21T09:54:03.024Z,24.60
2023-05-21T09:55:03.117Z,24.64
2023-05-21T09:56:03.331Z,24.63
2023-05-21T09:57:03.264Z,24.68
2023-05-21T09:58:03.656Z,24.71
2023-05-21T09:59:03.217Z,24.76
2023-05-21T10:00:03.327Z,24.83
2023-05-21T10:01:03.103Z,24.98
2023-05-21T10:02:03.690Z,25.15
2023-05-21T10:03:03.226Z,25.31
2023-05-21T10:04:02.984Z,25.47
2023-05-21T10:05:03.263Z,25.62
2023-05-21T10:06:03.194Z,25.74
2023-05-21T10:07:02.777Z,25.86
2023-05-21T10:08:02.732Z,25.97
2023-05-21T10:09:05.591Z,25.89
2023-05-21T10:10:03.324Z,25.84
2023-05-21T10:11:03.449Z,25.90
2023-05-21T10:12:03.705Z,25.94
2023-05-21T10:13:03.073Z,25.75
2023-05-21T10:14:02.964Z,25.71
2023-05-21T10:15:02.598Z,25.82
2023-05-21T10:16:03.019Z,25.93
2023-05-21T10:17:02.653Z,26.06
2023-05-21T10:18:02.660Z,26.20
2023-05-21T10:19:03.418Z,26.36
2023-05-21T10:20:03.115Z,26.39
2023-05-21T10:21:03.054Z,26.54
2023-05-21T10:22:03.329Z,26.65
2023-05-21T10:23:02.928Z,26.76
2023-05-21T10:24:02.235Z,26.84
2023-05-21T10:25:02.537Z,26.95
2023-05-21T10:26:02.716Z,27.02
2023-05-21T10:27:02.870Z,27.14
2023-05-21T10:28:02.678Z,27.26
2023-05-21T10:29:02.944Z,27.38
2023-05-21T10:30:03.195Z,27.43
2023-05-21T10:31:02.935Z,27.57
2023-05-21T10:32:02.988Z,27.71
2023-05-21T10:33:03.274Z,27.82
2023-05-21T10:34:03.227Z,27.88
2023-05-21T10:35:02.747Z,28.01
2023-05-21T10:36:03.036Z,28.17
2023-05-21T10:37:03.090Z,28.28
2023-05-21T10:38:03.306Z,28.32
2023-05-21T10:39:03.829Z,28.40
2023-05-21T10:40:03.791Z,28.47
2023-05-21T10:41:03.433Z,28.50
2023-05-21T10:42:03.359Z,28.53
2023-05-21T10:43:03.594Z,28.25
2023-05-21T10:44:02.853Z,28.10
2023-05-21T10:45:03.007Z,28.16
2023-05-21T10:46:02.914Z,28.23
2023-05-21T10:47:03.314Z,28.29
2023-05-21T10:48:03.540Z,28.32
2023-05-21T10:49:02.911Z,28.35
2023-05-21T10:50:03.068Z,28.22
2023-05-21T10:51:02.543Z,28.11
2023-05-21T10:52:02.890Z,28.19
2023-05-21T10:53:03.043Z,28.31
2023-05-21T10:54:03.268Z,28.36
2023-05-21T10:55:03.770Z,28.47
2023-05-21T10:56:03.806Z,28.60
2023-05-21T10:57:03.566Z,28.60
2023-05-21T10:58:03.859Z,28.66
2023-05-21T10:59:02.777Z,28.72
2023-05-21T11:00:02.895Z,28.70
2023-05-21T11:01:03.147Z,28.85
2023-05-21T11:02:02.867Z,29.00
2023-05-21T11:03:03.007Z,29.15
2023-05-21T11:04:02.362Z,29.18
2023-05-21T11:05:02.307Z,29.26
2023-05-21T11:06:02.783Z,29.37
2023-05-21T11:07:02.490Z,29.41
2023-05-21T11:08:02.201Z,29.44
2023-05-21T11:09:02.814Z,29.49
2023-05-21T11:10:02.190Z,29.53
2023-05-21T11:11:02.272Z,29.63
2023-05-21T11:12:02.638Z,29.82
2023-05-21T11:13:02.528Z,29.96
2023-05-21T11:14:02.838Z,30.11
2023-05-21T11:15:03.188Z,30.18
2023-05-21T11:16:02.626Z,30.02
2023-05-21T11:17:02.874Z,29.94
2023-05-21T11:18:02.715Z,29.96
2023-05-21T11:19:03.400Z,29.94
2023-05-21T11:20:03.233Z,29.90
2023-05-21T11:21:03.235Z,29.97
2023-05-21T11:22:02.853Z,30.11
2023-05-21T11:23:02.621Z,30.24
2023-05-21T11:24:03.011Z,30.24
2023-05-21T11:25:03.300Z,30.31
2023-05-21T11:26:03.321Z,30.34
2023-05-21T11:27:02.781Z,30.31
2023-05-21T11:28:02.965Z,30.30
2023-05-21T11:29:02.548Z,30.40
2023-05-21T11:30:02.215Z,30.50
2023-05-21T11:31:02.381Z,30.56
2023-05-21T11:32:02.331Z,30.64
2023-05-21T11:33:02.566Z,30.71
2023-05-21T11:34:03.029Z,30.56
2023-05-21T11:35:02.767Z,30.61
2023-05-21T11:36:03.162Z,30.67
2023-05-21T11:37:02.801Z,30.71
2023-05-21T11:38:03.013Z,30.62
2023-05-21T11:39:02.600Z,30.52
2023-05-21T11:40:02.802Z,30.31
2023-05-21T11:41:02.783Z,30.31
2023-05-21T11:42:04.326Z,30.46
2023-05-21T11:43:02.774Z,30.59
2023-05-21T11:44:03.071Z,30.64
2023-05-21T11:45:02.707Z,30.72
2023-05-21T11:46:03.070Z,30.76
2023-05-21T11:47:02.797Z,30.65
2023-05-21T11:48:03.174Z,30.62
2023-05-21T11:49:03.100Z,30.62
2023-05-21T11:50:03.381Z,30.65
2023-05-21T11:51:02.734Z,30.75
2023-05-21T11:52:03.140Z,30.90
2023-05-21T11:53:02.806Z,30.94
2023-05-21T11:54:02.724Z,30.96
2023-05-21T11:55:02.849Z,30.86
2023-05-21T11:56:03.064Z,30.87
2023-05-21T11:57:03.007Z,30.80
2023-05-21T11:58:02.440Z,30.71
2023-05-21T11:59:03.639Z,30.71
2023-05-21T12:00:03.301Z,30.75
2023-05-21T12:01:03.038Z,30.90
2023-05-21T12:02:03.327Z,30.99
2023-05-21T12:03:03.289Z,31.09
2023-05-21T12:04:02.683Z,31.15
2023-05-21T12:05:02.921Z,31.20
2023-05-21T12:06:02.339Z,31.27
2023-05-21T12:07:02.425Z,31.31
2023-05-21T12:08:02.780Z,31.26
2023-05-21T12:09:02.968Z,31.18
2023-05-21T12:10:02.862Z,31.21
2023-05-21T12:11:03.092Z,31.28
2023-05-21T12:12:02.679Z,31.38
2023-05-21T12:13:02.994Z,31.39
2023-05-21T12:14:03.400Z,31.40
2023-05-21T12:15:02.838Z,31.38
2023-05-21T12:16:05.831Z,31.36
2023-05-21T12:17:03.072Z,31.40
2023-05-21T12:18:03.449Z,31.35
2023-05-21T12:19:02.886Z,31.26
2023-05-21T12:20:02.537Z,31.13
2023-05-21T12:21:02.874Z,31.01
2023-05-21T12:22:02.736Z,30.93
2023-05-21T12:23:02.887Z,30.86
2023-05-21T12:24:03.083Z,30.69
2023-05-21T12:25:03.070Z,30.56
2023-05-21T12:26:03.309Z,30.52
2023-05-21T12:27:03.153Z,30.49
2023-05-21T12:28:02.825Z,30.46
2023-05-21T12:29:03.686Z,30.45
2023-05-21T12:30:03.791Z,30.38
2023-05-21T12:31:03.563Z,30.31
2023-05-21T12:32:03.583Z,30.27
2023-05-21T12:33:04.000Z,30.27
2023-05-21T12:34:02.934Z,30.30
2023-05-21T12:35:03.238Z,30.29
2023-05-21T12:36:03.064Z,30.19
2023-05-21T12:37:02.699Z,30.12
2023-05-21T12:38:03.077Z,30.14
2023-05-21T12:39:03.344Z,30.16
2023-05-21T12:40:03.318Z,30.14
2023-05-21T12:41:03.568Z,30.11
2023-05-21T12:42:03.159Z,30.11
2023-05-21T12:43:02.793Z,30.11
2023-05-21T12:44:03.781Z,30.09
2023-05-21T12:45:03.853Z,30.09
2023-05-21T12:46:03.870Z,30.09
2023-05-21T12:47:03.529Z,30.14
2023-05-21T12:48:03.948Z,30.14
2023-05-21T12:49:03.159Z,30.18
2023-05-21T12:50:02.524Z,30.19
2023-05-21T12:51:02.772Z,30.14
2023-05-21T12:52:02.903Z,30.11